createdAt,value
2023-05-25T00:03:40.440Z,21.20
2023-05-25T00:08:43.439Z,20.75
2023-05-25T00:13:46.255Z,15.77
2023-05-25T00:18:50.450Z,24.23
2023-05-25T00:23:53.316Z,23.70
2023-05-25T00:28:56.225Z,20.38
2023-05-25T00:34:01.044Z,21.42
2023-05-25T00:39:03.847Z,25.95
2023-05-25T00:44:07.638Z,26.75
2023-05-25T00:49:14.589Z,25.50
2023-05-25T00:54:18.523Z,20.63
2023-05-25T00:59:27.970Z,19.55
2023-05-25T01:04:32.626Z,23.80
2023-05-25T01:09:39.547Z,27.42
2023-05-25T01:14:43.338Z,20.83
2023-05-25T01:19:58.070Z,22.48
2023-05-25T01:25:16.298Z,29.45
2023-05-25T01:30:21.137Z,26.05
2023-05-25T01:35:26.365Z,21.40
2023-05-25T01:40:30.606Z,26.83
2023-05-25T01:45:34.401Z,25.27
2023-05-25T01:50:44.418Z,25.35
2023-05-25T01:55:54.928Z,27.02
2023-05-25T02:00:59.506Z,25.00
2023-05-25T02:06:02.693Z,26.50
2023-05-25T02:11:06.980Z,29.58
2023-05-25T02:16:09.849Z,22.23
2023-05-25T02:21:12.940Z,21.17
2023-05-25T02:26:17.149Z,30.48
2023-05-25T02:31:21.383Z,22.50
2023-05-25T02:36:25.029Z,25.58
2023-05-25T02:41:29.297Z,22.92
2023-05-25T02:46:33.563Z,26.95
2023-05-25T02:51:37.038Z,29.80
2023-05-25T02:56:42.429Z,28.55
2023-05-25T03:01:46.980Z,30.02
2023-05-25T03:06:49.789Z,29.98
2023-05-25T03:11:56.286Z,27.13
2023-05-25T03:17:00.819Z,26.63
2023-05-25T03:22:04.788Z,23.38
2023-05-25T03:27:15.114Z,26.33
2023-05-25T03:32:18.331Z,26.95
2023-05-25T03:37:21.298Z,24.33
2023-05-25T03:42:25.616Z,25.70
2023-05-25T03:47:28.729Z,22.30
2023-05-25T03:52:31.697Z,24.23
2023-05-25T03:57:36.089Z,26.20
2023-05-25T04:02:38.954Z,23.10
2023-05-25T04:07:41.803Z,23.92
2023-05-25T04:12:46.074Z,18.27
2023-05-25T04:17:48.931Z,16.88
2023-05-25T04:22:52.071Z,16.88
2023-05-25T04:27:56.940Z,19.25
2023-05-25T04:33:22.439Z,13.98
2023-05-25T04:38:35.595Z,13.82
2023-05-25T04:43:49.304Z,16.58
2023-05-25T04:48:59.809Z,13.48
2023-05-25T04:54:02.707Z,15.90
2023-05-25T04:59:07.184Z,14.02
2023-05-25T05:04:10.462Z,13.27
2023-05-25T05:09:14.283Z,14.43
2023-05-25T05:14:18.487Z,15.02
2023-05-25T05:19:22.961Z,13.25
2023-05-25T05:24:26.051Z,11.57
2023-05-25T05:29:30.262Z,13.70
2023-05-25T05:34:33.659Z,12.45
2023-05-25T05:39:41.831Z,15.70
2023-05-25T05:44:46.045Z,13.55
2023-05-25T05:49:48.850Z,15.45
2023-05-25T05:54:52.485Z,14.27
2023-05-25T06:00:00.010Z,14.25
2023-05-25T06:05:02.913Z,13.77
2023-05-25T06:10:06.884Z,15.30
2023-05-25T06:15:12.504Z,20.08
2023-05-25T06:20:16.666Z,14.02
2023-05-25T06:25:23.797Z,13.63
2023-05-25T06:30:28.038Z,15.32
2023-05-25T06:35:31.027Z,15.63
2023-05-25T06:40:34.199Z,19.00
2023-05-25T06:45:39.797Z,16.45
2023-05-25T06:50:42.953Z,11.57
2023-05-25T06:55:45.954Z,13.55
2023-05-25T07:00:50.598Z,14.48
2023-05-25T07:05:53.457Z,16.75
2023-05-25T07:10:56.231Z,18.83
2023-05-25T07:16:00.484Z,10.85
2023-05-25T07:21:03.602Z,8.77
2023-05-25T07:26:06.591Z,18.85
2023-05-25T07:31:13.043Z,14.32
2023-05-25T07:36:15.982Z,17.03
2023-05-25T07:41:18.837Z,10.55
2023-05-25T07:46:25.247Z,9.45
2023-05-25T07:51:31.135Z,12.32
2023-05-25T07:56:33.999Z,10.82
2023-05-25T08:01:39.112Z,11.55
2023-05-25T08:06:42.198Z,13.23
2023-05-25T08:11:45.761Z,12.25
2023-05-25T08:16:49.999Z,11.98
2023-05-25T08:21:53.572Z,11.15
2023-05-25T08:26:56.605Z,9.68
2023-05-25T08:32:00.916Z,8.88
2023-05-25T08:37:03.762Z,12.57
2023-05-25T08:42:08.105Z,11.07
2023-05-25T08:47:15.307Z,12.65
2023-05-25T08:52:23.444Z,16.70
2023-05-25T09:02:40.262Z,13.85
2023-05-25T09:07:44.372Z,20.48
2023-05-25T09:12:49.893Z,14.65
2023-05-25T09:17:54.174Z,16.25
2023-05-25T09:22:57.059Z,18.73
2023-05-25T09:28:04.789Z,12.82
2023-05-25T09:33:17.582Z,17.25
2023-05-25T09:38:21.820Z,16.40
2023-05-25T09:43:39.707Z,18.23
2023-05-25T09:48:48.604Z,14.43
2023-05-25T09:53:51.978Z,14.57
2023-05-25T09:58:54.801Z,21.00
2023-05-25T10:04:04.357Z,17.00
2023-05-25T10:09:13.923Z,15.27
2023-05-25T10:14:27.141Z,17.08
2023-05-25T10:19:41.400Z,20.13
2023-05-25T10:24:51.291Z,16.45
2023-05-25T10:29:57.085Z,16.23
2023-05-25T10:35:03.010Z,14.45
2023-05-25T10:40:09.485Z,21.17
2023-05-25T10:45:13.438Z,16.65
2023-05-25T10:50:22.881Z,16.75
2023-05-25T10:55:27.784Z,15.63
2023-05-25T11:00:32.262Z,20.23
2023-05-25T11:05:38.818Z,21.38
2023-05-25T11:10:54.469Z,18.85
2023-05-25T11:16:17.681Z,17.25
2023-05-25T11:21:43.496Z,20.73
2023-05-25T11:26:58.071Z,18.40
2023-05-25T11:32:01.250Z,22.58
2023-05-25T11:37:06.151Z,19.27
2023-05-25T11:42:11.325Z,21.95
2023-05-25T11:47:18.612Z,19.05
2023-05-25T11:52:23.129Z,22.43
2023-05-25T11:57:26.705Z,18.80
2023-05-25T12:02:38.896Z,24.92
2023-05-25T12:07:46.878Z,16.65
2023-05-25T12:17:55.480Z,19.75
2023-05-25T12:22:59.796Z,22.42
2023-05-25T12:28:12.024Z,18.02
2023-05-25T12:33:16.084Z,20.63
2023-05-25T12:38:21.799Z,26.65
2023-05-25T12:43:24.751Z,19.95
2023-05-25T12:48:28.170Z,20.95
2023-05-25T12:53:33.737Z,21.98
2023-05-25T12:58:36.518Z,20.75
2023-05-25T13:03:39.716Z,20.10
2023-05-25T13:08:44.260Z,21.80
2023-05-25T13:13:47.091Z,21.00
2023-05-25T13:18:49.864Z,18.92
2023-05-25T13:23:54.026Z,21.75
2023-05-25T13:28:56.811Z,21.27
2023-05-25T13:33:59.801Z,25.17
2023-05-25T13:39:05.245Z,16.42
2023-05-25T13:44:08.151Z,21.90
2023-05-25T13:49:11.924Z,20.25
2023-05-25T13:54:16.114Z,22.13
2023-05-25T13:59:18.978Z,21.02
2023-05-25T14:04:21.833Z,22.67
2023-05-25T14:09:26.221Z,19.40
2023-05-25T14:14:32.232Z,21.40
2023-05-25T14:19:36.040Z,22.20
2023-05-25T14:24:40.433Z,21.58
2023-05-25T14:29:43.316Z,18.75
2023-05-25T14:34:46.403Z,20.70
2023-05-25T14:39:50.588Z,26.17
2023-05-25T14:44:53.451Z,18.75
2023-05-25T14:49:56.460Z,20.58
2023-05-25T14:55:00.654Z,17.45
2023-05-25T15:00:04.152Z,23.00
2023-05-25T15:05:08.064Z,21.95
2023-05-25T15:10:12.869Z,24.60
2023-05-25T15:15:15.720Z,24.65
2023-05-25T15:20:18.673Z,21.33
2023-05-25T15:30:34.372Z,23.70
2023-05-25T15:35:37.231Z,25.25
2023-05-25T15:40:41.408Z,24.05
2023-05-25T15:45:44.397Z,17.25
2023-05-25T15:50:47.370Z,20.98
2023-05-25T15:55:51.547Z,23.05
2023-05-25T16:00:54.376Z,20.40
2023-05-25T16:05:57.828Z,20.95
2023-05-25T16:11:02.091Z,23.60
2023-05-25T16:16:06.427Z,20.95
2023-05-25T16:21:09.294Z,21.67
2023-05-25T16:26:13.688Z,24.02
2023-05-25T16:31:17.454Z,21.05
2023-05-25T16:36:20.472Z,18.15
2023-05-25T16:41:24.618Z,25.63
2023-05-25T16:46:27.464Z,27.27
2023-05-25T16:51:31.048Z,21.77
2023-05-25T16:56:35.587Z,22.88
2023-05-25T17:01:38.527Z,19.27
2023-05-25T17:06:41.335Z,18.80
2023-05-25T17:11:45.434Z,25.45
2023-05-25T17:16:48.258Z,20.33
2023-05-25T17:21:51.208Z,20.23
2023-05-25T17:26:55.355Z,23.33
2023-05-25T17:31:58.200Z,20.33
2023-05-25T17:37:01.104Z,19.67
2023-05-25T17:42:06.438Z,23.33
2023-05-25T17:47:11.098Z,27.83
2023-05-25T17:52:14.399Z,26.08
2023-05-25T17:57:19.268Z,21.02
2023-05-25T18:02:22.301Z,22.45
2023-05-25T18:07:25.385Z,19.35
2023-05-25T18:12:29.658Z,21.55
2023-05-25T18:17:32.602Z,21.33
2023-05-25T18:22:36.500Z,18.50
2023-05-25T18:27:40.849Z,19.20
2023-05-25T18:32:43.800Z,20.55
2023-05-25T18:37:46.746Z,22.67
2023-05-25T18:42:51.303Z,23.27
2023-05-25T18:47:54.300Z,23.30
2023-05-25T18:52:59.533Z,20.55
2023-05-25T18:58:04.138Z,24.52
2023-05-25T19:03:07.150Z,22.60
2023-05-25T19:08:10.471Z,20.65
2023-05-25T19:13:14.739Z,19.20
2023-05-25T19:18:17.721Z,21.58
2023-05-25T19:23:21.177Z,21.25
2023-05-25T19:28:25.664Z,20.95
2023-05-25T19:33:30.888Z,26.42
2023-05-25T19:38:41.177Z,22.17
2023-05-25T19:43:47.834Z,22.50
2023-05-25T19:48:54.085Z,24.48
2023-05-25T19:54:42.654Z,24.98
2023-05-25T19:59:47.404Z,19.80
2023-05-25T20:04:50.286Z,23.83
2023-05-25T20:09:53.116Z,24.02
2023-05-25T20:14:57.292Z,22.95
2023-05-25T20:20:00.830Z,22.70
2023-05-25T20:25:03.771Z,34.65
2023-05-25T20:30:13.856Z,21.73
2023-05-25T20:35:18.553Z,22.88
2023-05-25T20:40:21.835Z,24.80
2023-05-25T20:45:26.180Z,21.05
2023-05-25T20:50:29.262Z,17.23
2023-05-25T20:55:32.399Z,21.15
2023-05-25T21:00:36.572Z,15.93
2023-05-25T21:05:39.525Z,20.10
2023-05-25T21:10:42.330Z,20.42
2023-05-25T21:15:46.768Z,23.15
2023-05-25T21:20:50.136Z,23.05
2023-05-25T21:25:53.004Z,22.33
2023-05-25T21:30:57.296Z,18.75
2023-05-25T21:36:00.149Z,23.83
2023-05-25T21:41:03.014Z,19.33
2023-05-25T21:46:07.143Z,20.40
2023-05-25T21:51:09.987Z,22.98
2023-05-25T21:56:12.898Z,24.60
2023-05-25T22:01:17.196Z,27.23
2023-05-25T22:06:20.112Z,23.50
2023-05-25T22:11:24.409Z,21.15
2023-05-25T22:16:28.562Z,22.98
2023-05-25T22:21:31.395Z,16.20
2023-05-25T22:26:34.265Z,18.83
2023-05-25T22:31:38.565Z,21.40
2023-05-25T22:36:41.399Z,26.50
2023-05-25T22:41:44.284Z,23.15
2023-05-25T22:46:49.008Z,21.80
2023-05-25T22:51:51.956Z,21.98
2023-05-25T22:56:54.744Z,23.35
2023-05-25T23:01:59.060Z,24.52
2023-05-25T23:07:01.849Z,23.50
2023-05-25T23:12:04.955Z,24.05
2023-05-25T23:17:09.110Z,25.33
2023-05-25T23:22:11.998Z,23.88
2023-05-25T23:27:14.813Z,26.35
2023-05-25T23:32:18.962Z,25.60
2023-05-25T23:37:21.759Z,25.15
2023-05-25T23:42:24.595Z,19.02
2023-05-25T23:47:29.253Z,21.42
2023-05-25T23:52:32.080Z,24.85
2023-05-25T23:57:35.856Z,22.42
